createdAt,value
2022-07-29T00:00:52.217Z,3.88
2022-07-29T00:03:18.711Z,4.45
2022-07-29T00:05:45.252Z,4.65
2022-07-29T00:08:12.678Z,4.35
2022-07-29T00:10:39.550Z,3.83
2022-07-29T00:13:06.014Z,4.15
2022-07-29T00:15:32.465Z,4.20
2022-07-29T00:17:58.947Z,4.38
2022-07-29T00:20:25.356Z,4.50
2022-07-29T00:22:51.800Z,4.10
2022-07-29T00:25:18.220Z,3.70
2022-07-29T00:27:44.639Z,4.75
2022-07-29T00:30:11.151Z,4.55
2022-07-29T00:32:37.596Z,4.43
2022-07-29T00:35:22.722Z,4.47
2022-07-29T00:37:50.269Z,5.15
2022-07-29T00:40:16.825Z,4.65
2022-07-29T00:42:46.924Z,5.00
2022-07-29T00:45:13.681Z,5.25
2022-07-29T00:47:40.242Z,5.22
2022-07-29T00:50:07.952Z,4.90
2022-07-29T00:52:36.574Z,5.35
2022-07-29T00:55:08.751Z,4.88
2022-07-29T00:57:38.279Z,6.15
2022-07-29T01:00:05.816Z,5.40
2022-07-29T01:02:32.360Z,6.15
2022-07-29T01:04:58.866Z,5.15
2022-07-29T01:07:27.146Z,5.20
2022-07-29T01:09:54.531Z,4.90
2022-07-29T01:12:24.021Z,5.32
2022-07-29T01:14:51.048Z,5.63
2022-07-29T01:17:36.176Z,5.75
2022-07-29T01:20:08.195Z,4.68
2022-07-29T01:22:34.634Z,4.88
2022-07-29T01:25:01.038Z,5.32
2022-07-29T01:27:37.961Z,5.70
2022-07-29T01:30:06.330Z,6.13
2022-07-29T01:32:37.903Z,5.18
2022-07-29T01:35:07.000Z,5.25
2022-07-29T01:37:52.971Z,5.80
2022-07-29T01:40:31.927Z,5.85
2022-07-29T01:42:59.284Z,6.32
2022-07-29T01:45:25.708Z,5.95
2022-07-29T01:48:07.214Z,5.68
2022-07-29T01:50:53.879Z,5.35
2022-07-29T01:53:38.105Z,5.57
2022-07-29T01:56:05.782Z,6.78
2022-07-29T01:58:33.417Z,5.63
2022-07-29T02:01:00.729Z,5.78
2022-07-29T02:03:28.050Z,6.30
2022-07-29T02:05:56.669Z,5.50
2022-07-29T02:08:24.173Z,6.63
2022-07-29T02:10:51.582Z,6.13
2022-07-29T02:13:19.138Z,5.80
2022-07-29T02:15:45.921Z,5.95
2022-07-29T02:18:15.465Z,6.30
2022-07-29T02:20:43.700Z,6.13
2022-07-29T02:23:11.438Z,5.75
2022-07-29T02:25:38.538Z,5.18
2022-07-29T02:28:05.730Z,6.15
2022-07-29T02:30:32.832Z,5.20
2022-07-29T02:32:59.663Z,5.45
2022-07-29T02:35:26.339Z,5.97
2022-07-29T02:38:12.211Z,6.13
2022-07-29T02:40:39.855Z,7.10
2022-07-29T02:43:06.959Z,6.60
2022-07-29T02:45:34.079Z,5.88
2022-07-29T02:48:01.351Z,7.00
2022-07-29T02:50:30.784Z,7.35
2022-07-29T02:53:00.264Z,7.18
2022-07-29T02:55:45.832Z,6.88
2022-07-29T02:58:21.159Z,6.70
2022-07-29T03:00:48.121Z,6.20
2022-07-29T03:03:17.084Z,5.90
2022-07-29T03:05:43.532Z,6.53
2022-07-29T03:08:12.842Z,5.82
2022-07-29T03:10:43.652Z,6.65
2022-07-29T03:13:10.558Z,6.97
2022-07-29T03:15:37.805Z,5.88
2022-07-29T03:18:04.722Z,6.38
2022-07-29T03:20:31.172Z,6.28
2022-07-29T03:22:57.609Z,5.57
2022-07-29T03:25:24.090Z,5.55
2022-07-29T03:27:50.500Z,6.70
2022-07-29T03:30:18.386Z,6.90
2022-07-29T03:32:48.567Z,6.88
2022-07-29T03:35:17.448Z,5.78
2022-07-29T03:37:45.155Z,7.18
2022-07-29T03:40:13.963Z,6.70
2022-07-29T03:42:41.105Z,6.10
2022-07-29T03:45:09.255Z,6.32
2022-07-29T03:47:51.061Z,6.88
2022-07-29T03:50:20.460Z,6.80
2022-07-29T03:52:47.581Z,6.88
2022-07-29T03:55:14.901Z,6.55
2022-07-29T03:57:41.408Z,7.25
2022-07-29T04:00:08.607Z,6.93
2022-07-29T04:02:35.310Z,7.20
2022-07-29T04:05:01.853Z,7.13
2022-07-29T04:07:31.025Z,6.95
2022-07-29T04:09:57.566Z,6.82
2022-07-29T04:12:24.110Z,7.15
2022-07-29T04:14:51.192Z,8.05
2022-07-29T04:17:17.929Z,7.18
2022-07-29T04:19:44.341Z,7.68
2022-07-29T04:22:10.737Z,6.72
2022-07-29T04:24:37.126Z,7.93
2022-07-29T04:27:03.880Z,7.18
2022-07-29T04:29:30.367Z,7.38
2022-07-29T04:31:56.792Z,7.15
2022-07-29T04:34:23.297Z,7.15
2022-07-29T04:36:55.436Z,6.45
2022-07-29T04:39:23.239Z,6.43
2022-07-29T04:41:51.116Z,7.78
2022-07-29T04:44:19.633Z,6.90
2022-07-29T04:46:46.383Z,7.20
2022-07-29T04:49:12.959Z,8.15
2022-07-29T04:51:39.501Z,6.63
2022-07-29T04:54:06.038Z,7.18
2022-07-29T04:56:32.759Z,8.23
2022-07-29T04:58:59.237Z,7.80
2022-07-29T05:01:25.819Z,6.95
2022-07-29T05:03:53.985Z,7.03
2022-07-29T05:06:23.518Z,6.10
2022-07-29T05:08:49.989Z,8.20
2022-07-29T05:11:21.347Z,7.25
2022-07-29T05:13:48.982Z,7.43
2022-07-29T05:16:15.528Z,6.63
2022-07-29T05:18:42.239Z,6.93
2022-07-29T05:21:08.647Z,6.30
2022-07-29T05:23:35.139Z,6.35
2022-07-29T05:26:01.579Z,6.15
2022-07-29T05:28:28.111Z,6.72
2022-07-29T05:30:54.567Z,6.57
2022-07-29T05:33:34.924Z,6.68
2022-07-29T05:36:02.905Z,6.32
2022-07-29T05:38:29.772Z,7.18
2022-07-29T05:40:57.388Z,6.25
2022-07-29T05:43:24.011Z,5.93
2022-07-29T05:45:50.552Z,6.10
2022-07-29T05:48:17.327Z,6.13
2022-07-29T05:50:44.490Z,5.97
2022-07-29T05:53:19.832Z,6.88
2022-07-29T05:55:47.358Z,5.93
2022-07-29T05:58:13.803Z,6.72
2022-07-29T06:00:40.863Z,6.82
2022-07-29T06:03:07.300Z,6.63
2022-07-29T06:05:33.714Z,6.90
2022-07-29T06:08:00.304Z,6.70
2022-07-29T06:10:27.835Z,6.20
2022-07-29T06:12:54.491Z,6.45
2022-07-29T06:15:20.996Z,6.25
2022-07-29T06:18:00.079Z,6.38
2022-07-29T06:20:32.104Z,6.18
2022-07-29T06:22:59.015Z,5.90
2022-07-29T06:25:25.520Z,6.03
2022-07-29T06:27:51.964Z,5.72
2022-07-29T06:30:18.390Z,5.88
2022-07-29T06:32:44.892Z,5.63
2022-07-29T06:35:37.628Z,6.13
2022-07-29T06:37:59.713Z,5.63
2022-07-29T06:40:45.194Z,5.55
2022-07-29T06:43:11.856Z,5.35
2022-07-29T06:45:42.125Z,5.13
2022-07-29T06:48:09.095Z,4.68
2022-07-29T06:50:35.612Z,5.18
2022-07-29T06:53:02.201Z,6.07
2022-07-29T06:55:28.590Z,4.85
2022-07-29T06:57:55.023Z,4.82
2022-07-29T07:00:21.498Z,5.40
2022-07-29T07:02:48.050Z,4.70
2022-07-29T07:05:14.691Z,4.75
2022-07-29T07:07:42.820Z,4.70
2022-07-29T07:10:09.582Z,4.95
2022-07-29T07:12:36.003Z,5.25
2022-07-29T07:15:02.624Z,4.97
2022-07-29T07:17:29.022Z,4.85
2022-07-29T07:19:55.711Z,4.85
2022-07-29T07:22:22.287Z,5.07
2022-07-29T07:24:48.730Z,4.45
2022-07-29T07:27:15.339Z,4.65
2022-07-29T07:29:44.246Z,5.38
2022-07-29T07:32:11.235Z,4.20
2022-07-29T07:34:38.986Z,4.88
2022-07-29T07:37:05.835Z,4.93
2022-07-29T07:39:32.371Z,5.03
2022-07-29T07:41:58.931Z,4.82
2022-07-29T07:44:25.457Z,4.70
2022-07-29T07:46:52.057Z,4.30
2022-07-29T07:49:18.908Z,5.10
2022-07-29T07:51:50.575Z,4.40
2022-07-29T07:54:18.444Z,3.80
2022-07-29T07:56:50.816Z,4.25
2022-07-29T07:59:19.706Z,4.57
2022-07-29T08:01:55.000Z,3.38
2022-07-29T08:04:27.336Z,4.43
2022-07-29T08:06:55.314Z,3.78
2022-07-29T08:09:29.352Z,3.88
2022-07-29T08:11:57.091Z,3.80
2022-07-29T08:14:23.568Z,3.50
2022-07-29T08:16:50.265Z,3.60
2022-07-29T08:19:16.952Z,3.95
2022-07-29T08:21:43.371Z,3.45
2022-07-29T08:24:28.366Z,4.07
2022-07-29T08:26:54.747Z,3.03
2022-07-29T08:29:21.232Z,3.38
2022-07-29T08:31:47.763Z,3.55
2022-07-29T08:34:14.251Z,3.33
2022-07-29T08:36:40.727Z,3.40
2022-07-29T08:39:07.177Z,2.65
2022-07-29T08:41:33.620Z,2.90
2022-07-29T08:44:00.131Z,3.55
2022-07-29T08:46:26.574Z,3.17
2022-07-29T08:48:53.095Z,3.05
2022-07-29T08:51:20.271Z,3.47
2022-07-29T08:53:49.277Z,2.97
2022-07-29T08:56:18.221Z,3.38
2022-07-29T08:58:46.861Z,3.15
2022-07-29T09:01:21.799Z,3.65
2022-07-29T09:03:49.816Z,2.72
2022-07-29T09:06:17.998Z,2.97
2022-07-29T09:08:45.293Z,3.58
2022-07-29T09:11:12.725Z,3.45
2022-07-29T09:13:39.129Z,3.92
2022-07-29T09:16:09.169Z,3.20
2022-07-29T09:18:43.400Z,3.40
2022-07-29T09:21:32.810Z,3.67
2022-07-29T09:24:09.627Z,3.50
2022-07-29T09:26:45.733Z,3.20
2022-07-29T09:29:13.513Z,3.08
2022-07-29T09:31:42.727Z,3.60
2022-07-29T09:34:09.737Z,3.28
2022-07-29T09:36:44.165Z,3.13
2022-07-29T09:39:10.818Z,3.08
2022-07-29T09:41:48.698Z,2.78
2022-07-29T09:44:15.797Z,2.80
2022-07-29T09:46:53.864Z,2.80
2022-07-29T09:49:20.951Z,3.10
2022-07-29T09:51:51.033Z,2.92
2022-07-29T09:54:31.472Z,2.85
2022-07-29T09:57:00.504Z,2.88
2022-07-29T09:59:29.663Z,2.97
2022-07-29T10:01:58.652Z,2.55
2022-07-29T10:04:36.919Z,2.97
2022-07-29T10:07:05.482Z,2.53
2022-07-29T10:09:32.538Z,2.90
2022-07-29T10:12:14.613Z,2.72
2022-07-29T10:14:42.285Z,3.07
2022-07-29T10:17:10.242Z,2.45
2022-07-29T10:19:37.740Z,2.60
2022-07-29T10:22:05.578Z,2.88
2022-07-29T10:24:32.352Z,2.35
2022-07-29T10:27:00.533Z,2.50
2022-07-29T10:29:26.975Z,2.78
2022-07-29T10:31:56.679Z,2.20
2022-07-29T10:34:29.170Z,2.80
2022-07-29T10:37:01.874Z,2.33
2022-07-29T10:39:44.343Z,2.47
2022-07-29T10:42:19.970Z,2.30
2022-07-29T10:44:47.146Z,2.65
2022-07-29T10:47:32.244Z,2.33
2022-07-29T10:50:05.716Z,2.50
2022-07-29T10:52:57.316Z,2.25
2022-07-29T10:55:39.289Z,2.08
2022-07-29T10:58:18.957Z,2.67
2022-07-29T11:00:46.785Z,2.25
2022-07-29T11:03:33.960Z,2.47
2022-07-29T11:06:00.448Z,2.70
2022-07-29T11:08:27.968Z,2.45
2022-07-29T11:11:15.882Z,2.95
2022-07-29T11:13:48.938Z,2.47
2022-07-29T11:16:16.413Z,3.10
2022-07-29T11:19:01.954Z,2.53
2022-07-29T11:21:53.727Z,2.70
2022-07-29T11:24:30.222Z,2.95
2022-07-29T11:27:13.490Z,3.17
2022-07-29T11:29:50.388Z,2.80
2022-07-29T11:32:23.131Z,2.72
2022-07-29T11:34:51.577Z,2.25
2022-07-29T11:37:20.010Z,2.55
2022-07-29T11:40:00.295Z,2.45
2022-07-29T11:42:34.379Z,3.03
2022-07-29T11:45:44.313Z,2.80
2022-07-29T11:48:27.841Z,2.20
2022-07-29T11:50:53.176Z,2.60
2022-07-29T11:53:19.653Z,2.55
2022-07-29T11:55:50.853Z,2.15
2022-07-29T11:58:22.262Z,2.87
2022-07-29T12:00:51.776Z,2.67
2022-07-29T12:03:33.272Z,2.55
2022-07-29T12:06:03.413Z,2.85
2022-07-29T12:08:30.500Z,2.33
2022-07-29T12:10:57.007Z,2.30
2022-07-29T12:13:37.644Z,2.40
2022-07-29T12:16:04.788Z,2.20
2022-07-29T12:18:31.974Z,2.60
2022-07-29T13:13:22.690Z,2.42
2022-07-29T13:16:05.821Z,2.63
2022-07-29T13:18:38.809Z,2.38
2022-07-29T13:21:16.093Z,2.55
2022-07-29T13:23:43.057Z,2.83
2022-07-29T13:26:10.658Z,2.97
2022-07-29T13:28:37.113Z,2.60
2022-07-29T13:31:03.667Z,2.83
2022-07-29T13:33:31.159Z,2.80
2022-07-29T13:35:57.686Z,2.85
2022-07-29T13:38:24.223Z,2.80
2022-07-29T13:40:57.716Z,2.65
2022-07-29T13:43:24.133Z,2.70
2022-07-29T13:45:50.617Z,3.00
2022-07-29T13:48:17.038Z,2.85
2022-07-29T13:50:43.563Z,2.80
2022-07-29T13:53:10.009Z,2.70
2022-07-29T13:55:45.003Z,3.05
2022-07-29T13:58:11.441Z,3.10
2022-07-29T14:00:37.869Z,3.00
2022-07-29T14:03:04.275Z,2.95
2022-07-29T14:05:30.726Z,2.92
2022-07-29T14:07:57.256Z,3.42
2022-07-29T14:10:23.726Z,3.10
2022-07-29T14:12:50.204Z,3.45
2022-07-29T14:15:16.652Z,3.00
2022-07-29T14:17:43.092Z,2.75
2022-07-29T14:20:09.707Z,3.17
2022-07-29T14:22:41.764Z,3.28
2022-07-29T14:25:15.293Z,3.88
2022-07-29T14:27:42.148Z,3.25
2022-07-29T14:30:09.077Z,2.92
2022-07-29T14:32:35.671Z,2.83
2022-07-29T14:35:02.193Z,2.70
2022-07-29T14:37:37.615Z,2.90
2022-07-29T14:40:07.945Z,2.85
2022-07-29T14:42:34.372Z,2.78
2022-07-29T14:45:01.114Z,2.38
2022-07-29T14:47:27.587Z,2.75
2022-07-29T14:49:54.215Z,2.78
2022-07-29T14:52:20.692Z,2.80
2022-07-29T14:54:47.333Z,2.78
2022-07-29T14:57:13.965Z,2.75
2022-07-29T14:59:40.417Z,2.60
2022-07-29T15:02:06.969Z,2.38
2022-07-29T15:04:33.519Z,2.30
2022-07-29T15:06:59.983Z,2.53
2022-07-29T15:09:26.501Z,2.50
2022-07-29T15:11:53.008Z,2.72
2022-07-29T15:14:19.499Z,2.67
2022-07-29T15:16:46.697Z,2.22
2022-07-29T15:19:14.623Z,2.42
2022-07-29T15:21:41.597Z,2.35
2022-07-29T15:24:15.533Z,2.30
2022-07-29T15:26:43.364Z,2.45
2022-07-29T15:29:10.066Z,2.63
2022-07-29T15:31:36.625Z,2.80
2022-07-29T15:34:05.923Z,2.65
2022-07-29T15:36:51.481Z,2.30
2022-07-29T15:39:19.887Z,2.88
2022-07-29T15:41:46.514Z,3.03
2022-07-29T15:44:13.009Z,2.72
2022-07-29T15:46:58.232Z,2.20
2022-07-29T15:49:48.667Z,2.50
2022-07-29T15:52:17.039Z,2.97
2022-07-29T15:54:43.511Z,2.72
2022-07-29T15:57:09.996Z,2.58
2022-07-29T15:59:36.906Z,2.50
2022-07-29T16:02:03.539Z,2.78
2022-07-29T16:04:29.966Z,2.65
2022-07-29T16:06:57.376Z,2.63
2022-07-29T16:09:24.070Z,2.50
2022-07-29T16:11:53.565Z,2.83
2022-07-29T16:14:20.281Z,2.20
2022-07-29T16:16:46.882Z,2.50
2022-07-29T16:19:13.386Z,2.40
2022-07-29T16:21:40.046Z,3.15
2022-07-29T16:24:06.936Z,2.42
2022-07-29T16:26:34.166Z,2.80
2022-07-29T16:29:00.766Z,2.28
2022-07-29T16:31:27.354Z,2.50
2022-07-29T16:33:55.950Z,2.40
2022-07-29T16:36:23.165Z,2.50
2022-07-29T16:38:49.850Z,2.72
2022-07-29T16:41:16.464Z,2.63
2022-07-29T16:43:42.992Z,2.50
2022-07-29T16:46:12.492Z,2.60
2022-07-29T16:48:45.420Z,2.25
2022-07-29T16:51:12.151Z,2.65
2022-07-29T16:53:41.071Z,2.53
2022-07-29T16:56:07.571Z,2.33
2022-07-29T16:58:40.466Z,2.78
2022-07-29T17:03:36.419Z,2.38
2022-07-29T17:06:02.874Z,3.08
2022-07-29T17:08:29.418Z,2.22
2022-07-29T17:10:56.157Z,2.60
2022-07-29T17:13:22.694Z,3.47
2022-07-29T17:15:49.199Z,2.80
2022-07-29T17:18:15.665Z,3.22
2022-07-29T17:20:42.227Z,2.90
2022-07-29T17:23:09.530Z,2.33
2022-07-29T17:25:36.058Z,3.22
2022-07-29T17:28:02.552Z,2.67
2022-07-29T17:30:29.622Z,2.85
2022-07-29T17:32:56.094Z,3.10
2022-07-29T17:35:41.080Z,2.85
2022-07-29T17:38:14.125Z,3.38
2022-07-29T17:40:40.550Z,2.70
2022-07-29T17:43:09.266Z,2.70
2022-07-29T17:45:50.196Z,3.25
2022-07-29T17:48:17.683Z,2.72
2022-07-29T17:50:44.084Z,3.25
2022-07-29T17:53:15.906Z,3.30
2022-07-29T17:55:45.278Z,3.92
2022-07-29T17:58:12.491Z,3.47
2022-07-29T18:00:39.207Z,3.08
2022-07-29T18:03:05.905Z,3.50
2022-07-29T18:05:32.661Z,3.88
2022-07-29T18:08:02.810Z,5.50
2022-07-29T18:10:29.346Z,4.40
2022-07-29T18:12:55.771Z,3.83
2022-07-29T18:15:22.406Z,4.18
2022-07-29T18:17:57.025Z,3.65
2022-07-29T18:20:25.185Z,3.22
2022-07-29T18:22:51.593Z,3.70
2022-07-29T18:25:18.123Z,3.85
2022-07-29T18:27:45.146Z,3.90
2022-07-29T18:30:11.629Z,4.35
2022-07-29T18:32:38.101Z,3.60
2022-07-29T18:35:05.844Z,3.65
2022-07-29T18:38:01.038Z,3.60
2022-07-29T18:40:23.651Z,3.60
2022-07-29T18:42:50.098Z,3.33
2022-07-29T18:45:19.485Z,3.53
2022-07-29T18:47:47.577Z,3.42
2022-07-29T18:50:14.656Z,3.22
2022-07-29T18:52:41.232Z,3.22
2022-07-29T18:55:08.077Z,4.10
2022-07-29T18:57:55.132Z,2.90
2022-07-29T19:00:21.331Z,4.15
2022-07-29T19:02:49.283Z,3.20
2022-07-29T19:05:15.831Z,3.45
2022-07-29T19:07:45.540Z,2.92
2022-07-29T19:10:12.318Z,3.17
2022-07-29T19:12:39.166Z,3.63
2022-07-29T19:15:05.923Z,3.88
2022-07-29T19:17:32.318Z,3.85
2022-07-29T19:19:58.817Z,3.75
2022-07-29T19:22:25.338Z,3.65
2022-07-29T19:24:51.827Z,3.83
2022-07-29T19:27:18.317Z,4.30
2022-07-29T19:29:44.846Z,3.58
2022-07-29T19:32:11.516Z,3.70
2022-07-29T19:34:38.341Z,3.72
2022-07-29T19:37:05.307Z,3.10
2022-07-29T19:39:35.487Z,3.95
2022-07-29T19:42:03.532Z,4.20
2022-07-29T19:44:30.218Z,4.57
2022-07-29T19:46:57.097Z,3.72
2022-07-29T19:49:23.851Z,4.03
2022-07-29T19:51:50.416Z,3.80
2022-07-29T19:54:20.090Z,4.20
2022-07-29T19:56:46.656Z,4.85
2022-07-29T19:59:13.145Z,4.57
2022-07-29T20:01:39.725Z,4.57
2022-07-29T20:04:06.217Z,4.70
2022-07-29T20:06:32.742Z,4.47
2022-07-29T20:08:59.271Z,5.15
2022-07-29T20:11:26.569Z,4.72
2022-07-29T20:13:53.015Z,3.92
2022-07-29T20:16:19.679Z,4.13
2022-07-29T20:18:46.168Z,4.18
2022-07-29T20:21:12.631Z,3.88
2022-07-29T20:23:39.088Z,3.63
2022-07-29T20:26:09.262Z,3.63
2022-07-29T20:28:36.154Z,3.70
2022-07-29T20:31:02.674Z,3.13
2022-07-29T20:33:29.136Z,3.08
2022-07-29T20:35:55.575Z,2.95
2022-07-29T20:38:22.189Z,3.20
2022-07-29T20:40:48.681Z,2.80
2022-07-29T20:43:15.198Z,2.53
2022-07-29T20:45:41.635Z,2.78
2022-07-29T20:48:08.582Z,1.95
2022-07-29T20:50:35.105Z,2.40
2022-07-29T20:53:01.499Z,3.20
2022-07-29T20:55:28.024Z,2.58
2022-07-29T20:57:54.516Z,2.80
2022-07-29T21:00:20.986Z,3.15
2022-07-29T21:02:47.669Z,2.20
2022-07-29T21:05:14.197Z,2.55
2022-07-29T21:07:41.504Z,2.50
2022-07-29T21:10:08.210Z,2.80
2022-07-29T21:12:34.675Z,2.90
2022-07-29T21:15:05.702Z,2.78
2022-07-29T21:17:35.722Z,2.90
2022-07-29T21:20:03.882Z,2.70
2022-07-29T21:22:30.392Z,3.60
2022-07-29T21:24:56.985Z,3.28
2022-07-29T21:27:41.819Z,2.55
2022-07-29T21:30:08.535Z,2.70
2022-07-29T21:32:35.025Z,2.88
2022-07-29T21:35:01.538Z,2.92
2022-07-29T21:37:28.207Z,2.65
2022-07-29T21:39:54.698Z,2.90
2022-07-29T21:42:21.142Z,2.63
2022-07-29T21:44:47.700Z,2.35
2022-07-29T21:47:14.220Z,2.60
2022-07-29T21:49:40.645Z,3.20
2022-07-29T21:52:08.074Z,2.85
2022-07-29T21:54:35.617Z,2.03
2022-07-29T21:57:02.287Z,2.65
2022-07-29T21:59:29.032Z,3.03
2022-07-29T22:01:55.590Z,3.30
2022-07-29T22:04:22.159Z,2.92
2022-07-29T22:06:48.720Z,3.50
2022-07-29T22:09:15.403Z,3.92
2022-07-29T22:11:42.027Z,3.70
2022-07-29T22:14:08.438Z,3.90
2022-07-29T22:16:34.959Z,3.53
2022-07-29T22:19:03.939Z,3.67
2022-07-29T22:21:30.688Z,4.03
2022-07-29T22:23:57.242Z,4.82
2022-07-29T22:26:23.683Z,3.95
2022-07-29T22:28:50.086Z,4.72
2022-07-29T22:31:17.022Z,4.03
2022-07-29T22:33:43.527Z,4.00
2022-07-29T22:36:10.502Z,3.80
2022-07-29T22:38:38.055Z,3.33
2022-07-29T22:41:04.559Z,3.90
2022-07-29T22:43:30.947Z,3.67
2022-07-29T22:45:57.469Z,3.55
2022-07-29T22:48:23.935Z,3.30
2022-07-29T22:50:50.337Z,3.80
2022-07-29T22:53:16.814Z,3.03
2022-07-29T22:55:43.303Z,3.35
2022-07-29T22:58:09.796Z,3.47
2022-07-29T23:00:36.266Z,3.50
2022-07-29T23:03:02.760Z,4.00
2022-07-29T23:05:29.221Z,4.00
2022-07-29T23:07:55.683Z,3.88
2022-07-29T23:10:22.851Z,3.45
2022-07-29T23:12:49.422Z,4.38
2022-07-29T23:15:15.858Z,4.13
2022-07-29T23:17:44.599Z,4.13
2022-07-29T23:20:11.356Z,4.35
2022-07-29T23:22:41.157Z,4.03
2022-07-29T23:25:07.809Z,3.78
2022-07-29T23:27:34.329Z,4.82
2022-07-29T23:30:00.785Z,3.75
2022-07-29T23:32:27.208Z,4.57
2022-07-29T23:34:53.644Z,4.10
2022-07-29T23:37:20.199Z,4.30
2022-07-29T23:39:46.868Z,4.65
2022-07-29T23:42:13.241Z,4.82
2022-07-29T23:44:39.680Z,4.75
2022-07-29T23:47:06.223Z,5.78
2022-07-29T23:49:32.622Z,4.72
2022-07-29T23:51:59.051Z,5.00
2022-07-29T23:54:25.499Z,4.15
2022-07-29T23:56:51.933Z,4.10
2022-07-29T23:59:18.373Z,4.40
